• Join FlightAware (Why Join?)
  • Login
  • US Flag 
01:01PM EST


 

Airport Tracker/Info


-or-


 

Live Flight TrackerFlight Track Log ✈ FLG3429 ✈ 12-Jun-2013 ✈ KPSC - KMSP

Flight Track Log - Related Links

Times and Time Zones

All times are in EDT time to prevent confusion due to time zone crossing. See the FLG3429 flight status page for this flight to view local times or setup timezone preferences in your user account.

Time Position Orientation Groundspeed Altitude Reporting Facility
EDT Latitude Longitude Course Direction KTS MPH feet Rate Location/Type
04:27PM 46.2486 -119.0611 75° East 234 269 4,900  Level Salt Lake Center
04:28PM 46.4064 -118.4426 73° East  Level FlightAware Approximate
04:28PM 46.3006 -118.9492 56° Northeast 273 314 8,000  Level Seattle Center
04:29PM 46.4434 -118.2718 72° East  Level FlightAware Approximate
04:29PM 46.3467 -118.8497 56° Northeast 295 339 10,300  Level Seattle Center
04:30PM 46.4814 -118.1013 72° East  Level FlightAware Approximate
04:30PM 46.3578 -118.7164 83° East 332 382 11,800  Level Seattle Center
04:31PM 46.5190 -117.9319 72° East  Level FlightAware Approximate
04:31PM 46.3739 -118.5744 81° East 354 407 13,800  Level Seattle Center
04:32PM 46.5532 -117.7609 75° East  Level FlightAware Approximate
04:32PM 46.3906 -118.4289 81° East 365 420 16,000  Level Seattle Center
04:33PM 46.4078 -118.2761 81° East 377 434 17,800 1,620 Climbing Seattle Center
04:34PM 46.4256 -118.1194 81° East 391 450 19,400 1,320 Climbing Seattle Center
04:35PM 46.4425 -117.9569 81° East 404 465 20,600 1,260 Climbing Seattle Center
04:36PM 46.4614 -117.7853 81° East 430 495 22,000 1,320 Climbing Seattle Center
04:37PM 46.4800 -117.6072 81° East 445 512 23,300 1,140 Climbing Seattle Center
04:38PM 46.4989 -117.4264 81° East 453 521 24,400 1,260 Climbing Seattle Center
04:39PM 46.5214 -117.1992 82° East 474 545 25,900 1,320 Climbing Seattle Center
04:40PM 46.5411 -117.0061 81° East 483 556 27,200 1,080 Climbing Seattle Center
04:41PM 46.5606 -116.8086 82° East 496 571 28,100 1,020 Climbing Seattle Center
04:42PM 46.5792 -116.6081 82° East 501 577 29,300 1,320 Climbing Seattle Center
04:43PM 46.5983 -116.4122 82° East 497 572 30,800 1,260 Climbing Seattle Center
04:44PM 46.6161 -116.2172 82° East 492 566 32,000 1,020 Climbing Seattle Center
04:45PM 46.6333 -116.0269 82° East 481 554 33,000 660 Climbing Seattle Center
04:46PM 46.6517 -115.8286 82° East 492 566 33,400 720 Climbing Seattle Center
04:47PM 46.6450 -115.6342 93° East 482 555 34,500 780 Climbing Seattle Center
04:48PM 46.6086 -115.4097 103° East 474 545 35,000 240 Climbing Seattle Center
04:49PM 46.5742 -115.2192 105° East 487 560 35,000  Level Seattle Center
04:50PM 46.5350 -115.0261 106° East 497 572 35,000  Level Seattle Center
04:51PM 46.4961 -114.8536 108° East 504 580 35,000 240 Level Seattle Center
04:52PM 46.4419 -114.6197 109° East 510 587 35,600 480 Climbing Seattle Center
04:53PM 46.3972 -114.4308 109° East 501 577 36,000 180 Climbing Seattle Center
04:54PM 46.3567 -114.2558 109° East 469 540 36,000  Level Seattle Center
04:55PM 46.3017 -114.0539 111° Southeast 451 519 36,000  Level Salt Lake Center
04:56PM 46.2517 -113.8894 114° Southeast 449 517 36,000  Level Salt Lake Center
04:57PM 46.1956 -113.7217 116° Southeast 466 536 36,000  Level Salt Lake Center
04:58PM 46.1114 -113.5414 124° Southeast 465 535 36,000  Level Salt Lake Center
04:59PM 46.0339 -113.3867 126° Southeast 475 547 36,000  Level Salt Lake Center
05:01PM 45.9567 -113.2317 126° Southeast 477 549 36,000  Level Salt Lake Center
05:02PM 45.8803 -113.0731 125° Southeast 484 557 36,000  Level Salt Lake Center
05:03PM 45.8078 -112.9100 122° Southeast 488 562 36,100 480 Climbing Salt Lake Center
05:04PM 45.7828 -112.7119 100° East 511 588 37,000 420 Climbing Salt Lake Center
05:05PM 45.8061 -112.5078 81° East 523 602 37,000  Level Salt Lake Center
05:06PM 45.8378 -112.2642 79° East 519 597 37,000  Level Salt Lake Center
05:07PM 45.8633 -112.0622 80° East 515 593 37,000  Level Salt Lake Center
05:08PM 45.8886 -111.8619 80° East 511 588 37,000  Level Salt Lake Center
05:09PM 45.9139 -111.6628 80° East 506 582 37,000  Level Salt Lake Center
05:10PM 45.9386 -111.4622 80° East 506 582 37,000  Level Salt Lake Center
05:11PM 45.9644 -111.2539 80° East 516 594 37,000  Level Salt Lake Center
05:12PM 45.9892 -111.0406 80° East 527 606 37,000  Level Salt Lake Center
05:13PM 46.0147 -110.8283 80° East 530 610 37,000  Level Salt Lake Center
05:14PM 46.0383 -110.6175 81° East 531 611 37,000  Level Salt Lake Center
05:15PM 46.0614 -110.4003 81° East 527 606 37,000  Level Salt Lake Center
05:16PM 46.0883 -110.1653 81° East 531 611 37,000  Level Salt Lake Center
05:17PM 46.1103 -109.9653 81° East 530 610 37,000  Level Salt Lake Center
05:18PM 46.1367 -109.7303 81° East 534 615 37,000  Level Salt Lake Center
05:19PM 46.1569 -109.5314 82° East 524 603 37,000  Level Salt Lake Center
05:20PM 46.1778 -109.3306 81° East 528 608 37,000  Level Salt Lake Center
05:21PM 46.2008 -109.0997 82° East 521 600 37,000  Level Salt Lake Center
05:22PM 46.2203 -108.8994 82° East 524 603 37,000  Level Salt Lake Center
05:23PM 46.2433 -108.6681 82° East 521 600 37,000  Level Salt Lake Center
05:24PM 46.2619 -108.4722 82° East 513 590 37,000  Level Salt Lake Center
05:25PM 46.2825 -108.2414 83° East 518 596 37,000  Level Salt Lake Center
05:26PM 46.3000 -108.0458 83° East 512 589 37,000  Level Salt Lake Center
05:27PM 46.3178 -107.8492 82° East 513 590 37,000  Level Salt Lake Center
05:28PM 46.3375 -107.6214 83° East 511 588 37,000  Level Salt Lake Center
05:29PM 46.3536 -107.4214 83° East 522 601 37,000  Level Salt Lake Center
05:30PM 46.3731 -107.1942 83° East 513 590 37,000  Level Salt Lake Center
05:31PM 46.3894 -106.9997 83° East 509 586 37,000  Level Salt Lake Center
05:32PM 46.4067 -106.7703 84° East 510 587 37,000  Level Salt Lake Center
05:33PM 46.4228 -106.5744 83° East 511 588 37,000  Level Salt Lake Center
05:34PM 46.4375 -106.3789 84° East 511 588 37,000  Level Salt Lake Center
05:36PM 46.4525 -106.1467 85° East 515 593 37,000  Level Salt Lake Center
05:37PM 46.4661 -105.9500 84° East 514 592 37,000  Level Salt Lake Center
05:38PM 46.4831 -105.7200 84° East 513 590 37,000  Level Salt Lake Center
05:39PM 46.4958 -105.5233 85° East 513 590 37,000  Level Salt Lake Center
05:40PM 46.5103 -105.2931 85° East 512 589 37,000  Level Salt Lake Center
05:41PM 46.5236 -105.0972 84° East 511 588 37,000  Level Salt Lake Center
05:42PM 46.5383 -104.8678 85° East 511 588 37,000  Level Salt Lake Center
05:43PM 46.5503 -104.6844 85° East 511 588 37,000  Level Salt Lake Center
05:44PM 46.5633 -104.4797 85° East 512 589 37,000  Level Salt Lake Center
05:45PM 46.5739 -104.2742 86° East 513 590 37,000  Level Salt Lake Center
05:46PM 46.5892 -104.0294 85° East 512 589 37,000  Level Salt Lake Center
05:47PM 46.5992 -103.8239 86° East 512 589 37,000  Level Salt Lake Center
05:48PM 46.6108 -103.6197 85° East 512 589 37,000  Level Salt Lake Center
05:49PM 46.6200 -103.4608 85° East 509 586 37,000  Level Minneapolis Center
05:50PM 46.6303 -103.2603 86° East 504 580 37,000  Level Minneapolis Center
05:51PM 46.6389 -103.0597 86° East 501 577 37,000  Level Minneapolis Center
05:52PM 46.6492 -102.8225 86° East 495 570 37,000  Level Minneapolis Center
05:53PM 46.6592 -102.6261 86° East 491 565 37,000  Level Minneapolis Center
05:54PM 46.6675 -102.4300 86° East 490 564 37,000  Level Minneapolis Center
05:55PM 46.6750 -102.2347 87° East 489 563 37,000  Level Minneapolis Center
05:56PM 46.6836 -102.0386 86° East 486 559 37,000  Level Minneapolis Center
05:57PM 46.6889 -101.8458 88° East 482 555 37,000  Level Minneapolis Center
05:58PM 46.6964 -101.6186 87° East 483 556 37,000  Level Minneapolis Center
05:59PM 46.7014 -101.4267 88° East 478 550 37,000  Level Minneapolis Center
06:00PM 46.7083 -101.2294 87° East 482 555 37,000  Level Minneapolis Center
06:01PM 46.7133 -101.0325 88° East 485 558 37,000  Level Minneapolis Center
06:02PM 46.7203 -100.7986 87° East 482 555 37,000  Level Minneapolis Center
06:03PM 46.7244 -100.5994 88° East 489 563 37,000  Level Minneapolis Center
06:04PM 46.7292 -100.3997 88° East 491 565 37,000  Level Minneapolis Center
06:05PM 46.7333 -100.1958 88° East 499 574 37,000  Level Minneapolis Center
06:06PM 46.7372 -100.0056 88° East 503 579 37,000  Level Minneapolis Center
06:07PM 46.7417 -99.7569 88° East 511 588 37,000  Level Minneapolis Center
06:08PM 46.7447 -99.5517 89° East 511 588 37,000  Level Minneapolis Center
06:09PM 46.7467 -99.3497 89° East 504 580 37,000  Level Minneapolis Center
06:10PM 46.7503 -99.1536 88° East 493 567 37,000  Level Minneapolis Center
06:11PM 46.7522 -98.9581 89° East 486 559 37,000  Level Minneapolis Center
06:12PM 46.7536 -98.7614 89° East 487 560 37,000  Level Minneapolis Center
06:14PM 46.7561 -98.5258 89° East 488 562 37,000  Level Minneapolis Center
06:15PM 46.7569 -98.3242 90° East 495 570 37,000  Level Minneapolis Center
06:16PM 46.7575 -98.1200 90° East 504 580 37,000  Level Minneapolis Center
06:17PM 46.7572 -97.9144 90° East 509 586 37,000  Level Minneapolis Center
06:18PM 46.7581 -97.7092 90° East 509 586 37,000  Level Minneapolis Center
06:19PM 46.7567 -97.4647 90° East 508 585 37,000  Level Minneapolis Center
06:20PM 46.7575 -97.2567 90° East 513 590 37,000 -60 Level Minneapolis Center
06:21PM 46.7556 -97.0533 91° East 510 587 36,900  Descending Minneapolis Center
06:22PM 46.7481 -96.8528 93° East 502 578 37,000  Climbing Minneapolis Center
06:23PM 46.6967 -96.6686 112° Southeast 495 570 37,000  Level Minneapolis Center
06:24PM 46.6331 -96.4500 113° Southeast 491 565 37,000  Level Minneapolis Center
06:25PM 46.5781 -96.2717 114° Southeast 487 560 37,000  Level Minneapolis Center
06:26PM 46.5242 -96.0908 113° Southeast 489 563 37,000  Level Minneapolis Center
06:27PM 46.4689 -95.9142 114° Southeast 485 558 37,000  Level Minneapolis Center
06:28PM 46.4122 -95.7336 114° Southeast 483 556 37,000 -720 Level Minneapolis Center
06:29PM 46.3572 -95.5594 115° Southeast 479 551 35,600 -1,560 Descending Minneapolis Center
06:30PM 46.2986 -95.3692 114° Southeast 477 549 33,800 -1,680 Descending Minneapolis Center
06:31PM 46.2433 -95.1944 115° Southeast 478 550 32,200 -1,500 Descending Minneapolis Center
06:32PM 46.1872 -95.0175 115° Southeast 483 556 30,700 -1,740 Descending Minneapolis Center
06:33PM 46.1181 -94.8031 115° Southeast 489 563 28,700 -1,800 Descending Minneapolis Center
06:34PM 46.0497 -94.6439 122° Southeast 478 550 27,100 -1,560 Descending Minneapolis Center
06:35PM 45.9775 -94.4944 125° Southeast 462 532 25,500 -1,500 Descending Minneapolis Center
06:36PM 45.9086 -94.3467 124° Southeast 453 521 24,000 -840 Descending Minneapolis Center
06:37PM 45.8383 -94.2003 125° Southeast 448 516 23,800 -900 Descending Minneapolis Center
06:38PM 45.7678 -94.0558 125° Southeast 446 513 22,200 -1,800 Descending Minneapolis Center
06:39PM 45.6833 -93.8814 125° Southeast 446 513 20,100 -1,800 Descending Minneapolis Center
06:40PM 45.6153 -93.7436 125° Southeast 433 498 18,500 -1,620 Descending Minneapolis Center
06:41PM 45.5511 -93.6100 124° Southeast 414 476 16,800 -1,620 Descending Minneapolis Center
06:42PM 45.4564 -93.5386 152° Southeast 390 449 15,200 -1,560 Descending Minneapolis Center
06:43PM 45.3564 -93.4850 159° South 387 445 13,600 -1,560 Descending Minneapolis Center
06:45PM 45.2586 -93.4325 159° South 377 434 12,000 -1,260 Descending Minneapolis Center
06:46PM 45.1456 -93.3725 159° South 362 417 11,000 -720 Descending Minneapolis Center
06:47PM 45.0533 -93.3217 159° South 357 411 10,600 -840 Descending Minneapolis Center
06:48PM 44.9897 -93.2475 140° Southeast 300 345 9,300 -1,260 Descending Minneapolis Center
06:49PM 44.9558 -93.1403 114° Southeast 293 337 8,000 -1,500 Descending Minneapolis Center
06:50PM 44.9261 -93.0369 112° Southeast 283 326 6,300 -1,500 Descending Minneapolis Center
06:51PM 44.8861 -92.9444 121° Southeast 275 316 5,000 -660 Descending Minneapolis Center
06:52PM 44.8269 -92.9122 159° South 261 300 5,000 -720 Level Minneapolis Center
06:53PM 44.8117 -93.0092 258° West 218 251 3,600 -1,380 Descending Minneapolis Center